Time;durP1;ratioP1;P1;durP2;ratioP2;P2;SDS_P1;SDS_P2;PMS_P1;PMS_P2;Temp;Humidity;BMP_temperature;BMP_pressure;BME280_temperature;BME280_humidity;BME280_pressure;Samples;Min_cycle;Max_cycle;Signal;HPM_P1;HPM_P2
2022/07/16 00:01:26;;;;;;;4.07;1.60;;;14.60;99.90;;;;;;4975043;28;20046;-61
2022/07/16 00:03:56;;;;;;;5.30;1.65;;;14.60;99.90;;;;;;4976072;28;20025;-62
2022/07/16 00:06:23;;;;;;;3.65;1.55;;;14.80;99.90;;;;;;4976067;28;20027;-62
2022/07/16 00:08:49;;;;;;;4.95;1.88;;;14.80;99.90;;;;;;4974630;28;20026;-62
2022/07/16 00:11:15;;;;;;;1.98;1.50;;;14.70;99.90;;;;;;4976229;28;20398;-61
2022/07/16 00:13:40;;;;;;;2.35;1.60;;;14.70;99.90;;;;;;4974886;28;20038;-61
2022/07/16 00:16:10;;;;;;;3.88;1.73;;;14.70;99.90;;;;;;4976045;28;20038;-61
2022/07/16 00:21:20;;;;;;;2.95;1.60;;;14.60;99.90;;;;;;4976070;28;20086;-62
2022/07/16 00:23:46;;;;;;;4.20;1.80;;;14.50;99.90;;;;;;4974660;28;20027;-60
2022/07/16 00:26:12;;;;;;;3.97;1.85;;;14.50;99.90;;;;;;4974653;28;20055;-61
2022/07/16 00:28:37;;;;;;;2.22;1.60;;;14.50;99.90;;;;;;4974349;28;20083;-60
2022/07/16 00:31:03;;;;;;;2.45;1.50;;;14.50;99.90;;;;;;4975578;28;20031;-62
2022/07/16 00:33:29;;;;;;;2.22;1.65;;;14.50;99.90;;;;;;4975455;28;20121;-62
2022/07/16 00:35:54;;;;;;;8.00;1.60;;;14.50;99.90;;;;;;4975107;28;20418;-62
2022/07/16 00:38:20;;;;;;;2.75;1.60;;;14.40;99.90;;;;;;4974321;28;20117;-62
2022/07/16 00:40:46;;;;;;;3.28;1.35;;;14.30;99.90;;;;;;4974998;28;20033;-62
2022/07/16 00:43:13;;;;;;;2.03;1.50;;;14.30;99.90;;;;;;4974017;28;20109;-60
2022/07/16 00:45:39;;;;;;;6.07;1.80;;;14.30;99.90;;;;;;4974104;28;20023;-62
2022/07/16 00:48:05;;;;;;;3.03;1.40;;;14.40;99.90;;;;;;4974074;28;20113;-62
2022/07/16 00:50:32;;;;;;;4.05;1.40;;;14.30;99.90;;;;;;4975111;28;20023;-62
2022/07/16 00:52:59;;;;;;;2.42;1.50;;;14.30;99.90;;;;;;4974375;28;20027;-62
2022/07/16 00:55:25;;;;;;;3.28;1.48;;;14.30;99.90;;;;;;4973910;28;20125;-62
2022/07/16 00:57:50;;;;;;;2.75;1.58;;;14.20;99.90;;;;;;4974208;28;20081;-62
2022/07/16 01:00:16;;;;;;;1.40;1.30;;;14.20;99.90;;;;;;4974391;28;20023;-61
2022/07/16 01:02:42;;;;;;;2.35;1.67;;;14.20;99.90;;;;;;4974561;28;20022;-59
2022/07/16 01:05:08;;;;;;;2.88;1.55;;;14.30;99.90;;;;;;4974128;28;20073;-62
2022/07/16 01:07:34;;;;;;;2.95;1.60;;;14.20;99.90;;;;;;4973548;28;20417;-62
2022/07/16 01:10:03;;;;;;;4.82;1.55;;;14.00;99.90;;;;;;4973630;28;20053;-62
2022/07/16 01:12:29;;;;;;;5.18;1.60;;;14.00;99.90;;;;;;4973566;28;20069;-62
2022/07/16 01:14:57;;;;;;;5.78;1.90;;;14.00;99.90;;;;;;4973961;28;20070;-62
2022/07/16 01:17:22;;;;;;;5.22;1.52;;;13.90;99.90;;;;;;4973541;28;20033;-62
2022/07/16 01:19:48;;;;;;;2.53;1.70;;;13.80;99.90;;;;;;4974614;28;20026;-62
2022/07/16 01:22:22;;;;;;;1.60;1.30;;;13.90;99.90;;;;;;4974700;28;20474;-62
2022/07/16 01:24:49;;;;;;;1.50;1.40;;;14.00;99.90;;;;;;4973758;28;20027;-60
2022/07/16 01:27:16;;;;;;;4.18;1.83;;;14.10;99.90;;;;;;4974905;28;20026;-62
2022/07/16 01:29:41;;;;;;;4.55;1.92;;;14.10;99.90;;;;;;4973318;28;20026;-62
2022/07/16 01:32:07;;;;;;;1.92;1.60;;;14.10;99.90;;;;;;4973434;28;20029;-62
2022/07/16 01:34:33;;;;;;;1.92;1.73;;;13.90;99.90;;;;;;4974680;28;20042;-60
2022/07/16 01:37:04;;;;;;;7.68;2.00;;;13.70;99.90;;;;;;4973372;28;20026;-59
2022/07/16 01:39:31;;;;;;;2.30;1.73;;;13.70;99.90;;;;;;4973230;28;20123;-62
2022/07/16 01:41:59;;;;;;;1.70;1.30;;;13.60;99.90;;;;;;4974556;28;20034;-62
2022/07/16 01:44:26;;;;;;;2.13;1.38;;;13.60;99.90;;;;;;4973191;28;20046;-62
2022/07/16 01:46:53;;;;;;;4.15;1.88;;;13.60;99.90;;;;;;4973539;28;20023;-62
2022/07/16 01:49:19;;;;;;;4.50;1.58;;;13.60;99.90;;;;;;4973205;28;20122;-62
2022/07/16 01:51:45;;;;;;;1.75;1.40;;;13.70;99.90;;;;;;4976783;28;20110;-62
2022/07/16 01:54:11;;;;;;;4.65;1.67;;;13.70;99.90;;;;;;4977162;28;20121;-62
2022/07/16 01:56:37;;;;;;;5.78;2.05;;;13.80;99.90;;;;;;4977095;28;20118;-62
2022/07/16 01:59:03;;;;;;;1.90;1.48;;;13.60;99.90;;;;;;4977162;28;20027;-62
2022/07/16 02:01:29;;;;;;;6.28;1.67;;;13.60;99.90;;;;;;4978496;28;20054;-61
2022/07/16 02:03:54;;;;;;;2.03;1.33;;;13.60;99.90;;;;;;4976977;28;20054;-62
2022/07/16 02:06:20;;;;;;;2.35;1.70;;;13.50;99.90;;;;;;4977260;28;20085;-62
2022/07/16 02:08:46;;;;;;;2.35;1.50;;;13.60;99.90;;;;;;4976885;28;20027;-62
2022/07/16 02:11:11;;;;;;;5.43;1.77;;;13.70;99.90;;;;;;4976857;28;20023;-62
2022/07/16 02:13:37;;;;;;;2.03;1.65;;;13.50;99.90;;;;;;4978071;28;20023;-62
2022/07/16 02:16:03;;;;;;;2.47;1.38;;;13.40;99.90;;;;;;4978027;28;20031;-62
2022/07/16 02:18:29;;;;;;;5.60;1.55;;;13.30;99.90;;;;;;4977849;28;20124;-62
2022/07/16 02:20:55;;;;;;;7.40;2.00;;;13.30;99.90;;;;;;4977913;28;20037;-62
2022/07/16 02:23:20;;;;;;;2.80;1.45;;;13.30;99.90;;;;;;4977914;28;20070;-62
2022/07/16 02:25:46;;;;;;;2.42;2.10;;;13.30;99.90;;;;;;4976712;28;20026;-62
2022/07/16 02:28:12;;;;;;;4.68;1.70;;;13.30;99.90;;;;;;4977664;28;20106;-62
2022/07/16 02:30:48;;;;;;;2.58;1.95;;;13.20;99.90;;;;;;4977731;28;20027;-62
2022/07/16 02:33:16;;;;;;;2.67;1.60;;;13.10;99.90;;;;;;4977898;28;20027;-62
2022/07/16 02:35:43;;;;;;;2.85;1.50;;;13.20;99.90;;;;;;4976513;28;20086;-62
2022/07/16 02:38:09;;;;;;;2.47;1.80;;;13.20;99.90;;;;;;4976884;28;20027;-62
2022/07/16 02:40:36;;;;;;;4.53;1.50;;;13.30;99.90;;;;;;4976683;28;20078;-62
2022/07/16 02:43:06;;;;;;;4.47;1.67;;;13.30;99.90;;;;;;4976312;28;20203;-62
2022/07/16 02:45:34;;;;;;;1.80;1.33;;;13.30;99.90;;;;;;4977875;28;20027;-62
2022/07/16 02:48:00;;;;;;;3.78;1.60;;;13.30;99.90;;;;;;4977560;28;20027;-61
2022/07/16 02:50:26;;;;;;;1.83;1.45;;;13.20;99.90;;;;;;4976554;28;20031;-60
2022/07/16 02:52:52;;;;;;;2.42;2.20;;;13.20;99.90;;;;;;4976790;28;20027;-62
2022/07/16 02:55:18;;;;;;;2.35;1.67;;;13.10;99.90;;;;;;4977812;28;20131;-62
2022/07/16 02:57:43;;;;;;;3.25;1.80;;;13.10;99.90;;;;;;4977235;28;20019;-62
2022/07/16 03:00:12;;;;;;;4.25;2.83;;;12.90;99.90;;;;;;4975990;28;20074;-62
2022/07/16 03:02:38;;;;;;;2.65;1.85;;;13.00;99.90;;;;;;4974469;28;20022;-62
2022/07/16 03:05:04;;;;;;;2.60;1.80;;;13.10;99.90;;;;;;4976304;28;20111;-62
2022/07/16 03:07:30;;;;;;;3.72;2.00;;;13.20;99.90;;;;;;4975681;28;20049;-62
2022/07/16 03:09:56;;;;;;;4.03;2.00;;;13.20;99.90;;;;;;4975807;28;20026;-61
2022/07/16 03:12:22;;;;;;;2.33;2.08;;;13.20;99.90;;;;;;4975688;28;20023;-61
2022/07/16 03:14:48;;;;;;;2.35;1.80;;;13.10;99.90;;;;;;4975994;28;20034;-62
2022/07/16 03:17:13;;;;;;;3.35;2.10;;;13.20;99.90;;;;;;4976896;28;20033;-62
2022/07/16 03:19:40;;;;;;;3.75;1.80;;;13.10;99.90;;;;;;4976773;28;20101;-62
2022/07/16 03:22:05;;;;;;;2.33;1.75;;;13.30;99.90;;;;;;4977253;28;20065;-62
2022/07/16 03:24:31;;;;;;;3.60;1.90;;;13.30;99.90;;;;;;4975625;28;20027;-59
2022/07/16 03:26:57;;;;;;;3.63;2.28;;;13.10;99.90;;;;;;4976907;28;20034;-62
2022/07/16 03:29:23;;;;;;;8.15;4.30;;;13.10;99.90;;;;;;4976710;28;20034;-59
2022/07/16 03:31:49;;;;;;;10.88;6.18;;;13.10;99.90;;;;;;4975645;28;20031;-61
2022/07/16 03:34:14;;;;;;;5.10;2.92;;;13.00;99.90;;;;;;4976634;28;20495;-62
2022/07/16 03:36:40;;;;;;;2.58;1.90;;;13.00;99.90;;;;;;4975333;28;20077;-61
2022/07/16 03:39:06;;;;;;;2.72;2.15;;;13.00;99.90;;;;;;4975693;28;20058;-62
2022/07/16 03:41:38;;;;;;;3.38;2.55;;;13.00;99.90;;;;;;4976520;28;20101;-59
2022/07/16 03:44:08;;;;;;;6.85;2.70;;;12.90;99.90;;;;;;4975238;28;20031;-61
2022/07/16 03:46:35;;;;;;;2.40;2.20;;;13.00;99.90;;;;;;4976859;28;20022;-62
2022/07/16 03:49:02;;;;;;;4.60;2.33;;;13.00;99.90;;;;;;4975300;28;20031;-62
2022/07/16 03:51:28;;;;;;;5.57;3.55;;;12.90;99.90;;;;;;4975417;28;20437;-62
2022/07/16 03:53:54;;;;;;;5.80;3.30;;;12.90;99.90;;;;;;4975513;28;20393;-62
2022/07/16 03:56:20;;;;;;;2.70;2.13;;;12.80;99.90;;;;;;4975368;28;20034;-62
2022/07/16 03:58:46;;;;;;;5.00;2.80;;;12.80;99.90;;;;;;4976251;28;20026;-59
2022/07/16 04:01:12;;;;;;;5.90;3.08;;;12.90;99.90;;;;;;4975244;28;20026;-62
2022/07/16 04:03:38;;;;;;;3.05;1.83;;;12.90;99.90;;;;;;4974827;28;20027;-62
2022/07/16 04:06:05;;;;;;;10.80;5.07;;;12.90;99.90;;;;;;4976340;28;20035;-59
2022/07/16 04:08:31;;;;;;;2.38;2.13;;;13.10;99.90;;;;;;4975320;28;20036;-62
2022/07/16 04:10:57;;;;;;;3.47;2.17;;;13.10;99.90;;;;;;4975840;28;20031;-59
2022/07/16 04:13:23;;;;;;;3.63;2.50;;;13.40;99.90;;;;;;4974135;28;20095;-62
2022/07/16 04:15:48;;;;;;;3.08;2.17;;;13.50;99.90;;;;;;4975952;28;20042;-61
2022/07/16 04:18:14;;;;;;;3.88;2.25;;;13.50;99.90;;;;;;4974501;28;20547;-61
2022/07/16 04:20:40;;;;;;;4.57;3.05;;;13.70;99.90;;;;;;4974793;28;20026;-62
2022/07/16 04:23:06;;;;;;;2.22;1.92;;;13.90;99.90;;;;;;4975729;28;20499;-62
2022/07/16 04:25:32;;;;;;;6.60;1.80;;;14.00;99.90;;;;;;4974501;28;20059;-61
2022/07/16 04:27:58;;;;;;;5.60;2.47;;;14.10;99.90;;;;;;4975453;28;20102;-60
2022/07/16 04:30:24;;;;;;;3.80;2.35;;;14.10;99.90;;;;;;4974449;28;20022;-60
2022/07/16 04:32:50;;;;;;;2.20;2.00;;;14.10;99.90;;;;;;4974509;28;20027;-61
2022/07/16 04:35:16;;;;;;;2.78;2.20;;;14.20;99.90;;;;;;4975442;28;20030;-59
2022/07/16 04:37:42;;;;;;;3.38;2.00;;;14.30;99.90;;;;;;4974488;28;20062;-62
2022/07/16 04:40:10;;;;;;;3.75;1.92;;;14.50;99.90;;;;;;4974002;28;20030;-60
2022/07/16 04:42:37;;;;;;;4.45;2.42;;;14.70;99.90;;;;;;4975311;28;20027;-62
2022/07/16 04:45:03;;;;;;;6.50;2.60;;;14.80;99.90;;;;;;4974050;28;20019;-62
2022/07/16 04:47:29;;;;;;;3.25;2.83;;;14.70;99.90;;;;;;4975209;28;20027;-62
2022/07/16 04:49:55;;;;;;;6.30;2.78;;;14.80;99.90;;;;;;4975260;28;20027;-62
2022/07/16 04:52:21;;;;;;;4.72;1.92;;;14.90;99.90;;;;;;4973815;28;20134;-62
2022/07/16 04:54:46;;;;;;;4.22;2.22;;;14.90;99.90;;;;;;4973915;28;20438;-62
2022/07/16 04:57:12;;;;;;;3.25;2.25;;;15.10;99.90;;;;;;4975076;28;20030;-62
2022/07/16 04:59:37;;;;;;;2.25;2.05;;;15.10;99.90;;;;;;4975200;28;20371;-62
2022/07/16 05:04:47;;;;;;;3.10;2.30;;;15.40;99.90;;;;;;4974959;28;20064;-60
2022/07/16 05:07:12;;;;;;;3.78;2.17;;;15.50;99.90;;;;;;4974834;28;20035;-60
2022/07/16 05:09:38;;;;;;;2.75;1.95;;;15.50;99.90;;;;;;4973509;28;20186;-60
2022/07/16 05:12:04;;;;;;;4.10;2.45;;;15.60;99.90;;;;;;4973617;28;20035;-62
2022/07/16 05:14:30;;;;;;;3.63;1.95;;;15.80;99.90;;;;;;4974433;28;20037;-62
2022/07/16 05:16:56;;;;;;;5.45;2.17;;;15.70;99.90;;;;;;4973555;28;20478;-62
2022/07/16 05:19:22;;;;;;;2.35;2.00;;;15.70;99.90;;;;;;4973640;28;20026;-61
2022/07/16 05:21:48;;;;;;;2.15;1.75;;;16.00;99.90;;;;;;4973847;28;20023;-62
2022/07/16 05:24:13;;;;;;;3.22;1.65;;;16.60;99.90;;;;;;4974671;28;20031;-62
2022/07/16 05:26:39;;;;;;;4.78;1.83;;;17.40;99.90;;;;;;4972711;28;20030;-60
2022/07/16 05:29:05;;;;;;;3.50;1.90;;;17.80;99.90;;;;;;4975274;28;20054;-62
2022/07/16 05:31:31;;;;;;;4.05;1.90;;;18.10;99.90;;;;;;4973492;28;20023;-62
2022/07/16 05:33:56;;;;;;;4.82;2.08;;;18.10;99.90;;;;;;4973786;28;20035;-62
2022/07/16 05:36:22;;;;;;;4.15;2.22;;;18.30;99.90;;;;;;4973967;28;20023;-62
2022/07/16 05:38:47;;;;;;;4.88;2.00;;;18.50;99.90;;;;;;4974416;28;20478;-61
2022/07/16 05:41:13;;;;;;;3.65;2.22;;;18.60;99.90;;;;;;4974376;28;20027;-63
2022/07/16 05:43:38;;;;;;;3.42;2.00;;;19.00;99.90;;;;;;4974173;28;20182;-63
2022/07/16 05:46:04;;;;;;;3.20;1.70;;;19.60;99.90;;;;;;4973223;28;20026;-63
2022/07/16 05:48:30;;;;;;;4.55;1.67;;;20.20;99.90;;;;;;4973541;28;20027;-63
2022/07/16 05:50:55;;;;;;;3.78;1.48;;;20.90;99.90;;;;;;4974931;28;20494;-65
2022/07/16 05:53:21;;;;;;;3.00;1.80;;;21.50;99.90;;;;;;4973146;28;20034;-63
2022/07/16 05:55:47;;;;;;;2.67;1.73;;;21.90;99.90;;;;;;4974419;28;20026;-63
2022/07/16 05:58:13;;;;;;;1.40;1.30;;;22.10;99.90;;;;;;4973044;28;20023;-63
2022/07/16 06:00:38;;;;;;;2.97;1.50;;;22.30;99.90;;;;;;4973115;28;20019;-62
2022/07/16 06:03:04;;;;;;;2.45;1.48;;;22.20;99.90;;;;;;4973161;28;20105;-63
2022/07/16 06:05:30;;;;;;;3.00;1.35;;;22.20;99.90;;;;;;4973082;28;20066;-63
2022/07/16 06:07:55;;;;;;;2.60;1.90;;;22.70;99.90;;;;;;4973519;28;20037;-63
2022/07/16 06:10:21;;;;;;;8.00;3.50;;;23.50;99.90;;;;;;4972958;28;20019;-63
2022/07/16 06:12:48;;;;;;;2.95;1.80;;;24.00;99.90;;;;;;4973033;28;20568;-63
2022/07/16 06:15:13;;;;;;;3.38;1.95;;;24.00;99.60;;;;;;4974137;28;20023;-63
2022/07/16 06:17:40;;;;;;;4.03;2.03;;;23.50;99.50;;;;;;4974277;28;20022;-63
2022/07/16 06:20:07;;;;;;;7.53;1.92;;;23.40;99.60;;;;;;4972861;28;20026;-62
2022/07/16 06:22:33;;;;;;;3.70;2.00;;;23.10;99.90;;;;;;4972913;28;20025;-62
2022/07/16 06:24:59;;;;;;;2.60;1.77;;;22.80;99.90;;;;;;4973851;28;20106;-63
2022/07/16 06:27:26;;;;;;;4.38;1.92;;;22.60;99.90;;;;;;4974385;28;20095;-60
2022/07/16 06:29:51;;;;;;;2.95;1.67;;;22.50;99.90;;;;;;4972760;28;20037;-61
2022/07/16 06:32:17;;;;;;;3.55;1.77;;;22.30;99.90;;;;;;4973035;28;20026;-62
2022/07/16 06:34:43;;;;;;;4.53;1.90;;;22.20;99.90;;;;;;4973182;28;20117;-63
2022/07/16 06:37:08;;;;;;;2.60;1.50;;;21.90;99.90;;;;;;4974307;28;20038;-62
2022/07/16 06:39:34;;;;;;;3.00;1.67;;;21.70;99.90;;;;;;4976540;28;20034;-63
2022/07/16 06:42:00;;;;;;;8.25;4.60;;;21.70;99.90;;;;;;4977193;28;20648;-63
2022/07/16 06:44:26;;;;;;;6.60;2.30;;;21.70;99.90;;;;;;4976280;28;20066;-62
2022/07/16 06:46:53;;;;;;;6.45;1.42;;;21.60;99.90;;;;;;4977510;28;20027;-62
2022/07/16 06:49:19;;;;;;;2.47;1.42;;;21.60;99.90;;;;;;4976183;28;20027;-62
2022/07/16 06:51:44;;;;;;;5.60;1.75;;;21.50;99.90;;;;;;4977984;28;20054;-62
2022/07/16 06:57:32;;;;;;;;;;;21.40;99.90;;;;;;4977952;28;20026;-61
2022/07/16 06:59:58;;;;;;;2.45;1.73;;;21.30;99.90;;;;;;4976523;28;19910;-62
2022/07/16 07:02:24;;;;;;;5.30;1.80;;;21.30;99.90;;;;;;4977263;28;20398;-62
2022/07/16 07:04:50;;;;;;;6.43;1.70;;;21.30;99.90;;;;;;4976067;28;20023;-62
2022/07/16 07:07:15;;;;;;;3.28;1.38;;;21.40;99.90;;;;;;4977327;28;20058;-62
2022/07/16 07:09:41;;;;;;;4.35;1.52;;;21.50;99.90;;;;;;4976124;28;20031;-63
2022/07/16 07:12:06;;;;;;;4.82;2.13;;;21.60;99.90;;;;;;4977056;28;20030;-63
2022/07/16 07:14:32;;;;;;;5.63;1.70;;;21.70;99.90;;;;;;4975820;28;20019;-63
2022/07/16 07:16:58;;;;;;;5.22;1.95;;;21.90;99.90;;;;;;4977100;28;20165;-63
2022/07/16 07:19:23;;;;;;;3.45;1.33;;;22.20;99.90;;;;;;4975550;28;20031;-63
2022/07/16 07:21:49;;;;;;;4.32;1.77;;;22.60;99.90;;;;;;4975736;28;20121;-63
2022/07/16 07:24:14;;;;;;;3.50;1.90;;;23.10;99.90;;;;;;4976883;28;20390;-63
2022/07/16 07:26:40;;;;;;;5.85;1.30;;;23.70;99.70;;;;;;4975508;28;20022;-63
2022/07/16 07:29:05;;;;;;;3.47;1.45;;;24.60;98.50;;;;;;4976867;28;20031;-63
2022/07/16 07:31:31;;;;;;;2.63;1.27;;;24.90;96.70;;;;;;4975418;28;20081;-63
2022/07/16 07:33:57;;;;;;;2.42;0.95;;;24.70;97.10;;;;;;4976727;28;20037;-63
2022/07/16 07:36:23;;;;;;;5.55;1.50;;;24.70;96.60;;;;;;4975697;28;20085;-63
2022/07/16 07:38:48;;;;;;;5.15;1.20;;;24.80;96.00;;;;;;4975198;28;20118;-63
2022/07/16 07:41:14;;;;;;;6.75;1.08;;;24.70;96.30;;;;;;4976282;28;20092;-63
2022/07/16 07:43:39;;;;;;;5.47;1.33;;;24.60;96.20;;;;;;4975400;28;20042;-64
2022/07/16 07:46:06;;;;;;;1.80;1.10;;;24.50;96.30;;;;;;4976529;28;20023;-63
2022/07/16 07:48:32;;;;;;;2.88;1.20;;;24.70;96.10;;;;;;4974491;28;20033;-63
2022/07/16 07:50:58;;;;;;;4.20;0.90;;;24.70;95.80;;;;;;4976352;28;20050;-63
2022/07/16 07:53:24;;;;;;;2.67;1.60;;;24.80;95.50;;;;;;4976389;28;20065;-63
2022/07/16 07:55:50;;;;;;;2.97;1.45;;;24.80;95.80;;;;;;4975032;28;20026;-63
2022/07/16 07:58:15;;;;;;;3.58;1.30;;;24.80;95.80;;;;;;4974903;28;20033;-63
2022/07/16 08:00:41;;;;;;;4.88;1.20;;;24.80;95.40;;;;;;4974839;28;20023;-63
2022/07/16 08:03:08;;;;;;;2.97;1.40;;;24.70;95.60;;;;;;4976239;28;20023;-63
2022/07/16 08:05:33;;;;;;;6.32;1.48;;;24.80;95.90;;;;;;4974884;28;20054;-63
2022/07/16 08:07:59;;;;;;;5.35;1.60;;;24.90;95.40;;;;;;4975099;28;20058;-64
2022/07/16 08:10:24;;;;;;;4.63;1.30;;;25.30;94.40;;;;;;4976400;28;20026;-64
2022/07/16 08:12:50;;;;;;;5.55;2.72;;;26.00;94.20;;;;;;4975550;28;20031;-64
2022/07/16 08:15:37;;;;;;;3.03;1.02;;;26.80;93.20;;;;;;4975019;28;20027;-64
2022/07/16 08:18:03;;;;;;;1.83;1.10;;;28.30;91.20;;;;;;4975159;28;20034;-64
2022/07/16 08:20:29;;;;;;;2.65;1.25;;;29.20;89.20;;;;;;4975751;28;20033;-64
2022/07/16 08:22:54;;;;;;;2.88;1.30;;;29.90;87.20;;;;;;4974541;28;20081;-64
2022/07/16 08:28:04;;;;;;;2.33;1.30;;;31.50;80.30;;;;;;4976013;28;20041;-64
2022/07/16 08:30:30;;;;;;;7.65;1.60;;;31.20;77.50;;;;;;4974696;28;20389;-64
2022/07/16 08:32:55;;;;;;;3.33;1.33;;;30.90;76.60;;;;;;4974360;28;20026;-64
2022/07/16 08:35:21;;;;;;;3.35;1.10;;;31.30;74.20;;;;;;4975757;28;20091;-64
2022/07/16 08:37:47;;;;;;;1.52;1.10;;;31.90;72.70;;;;;;4974375;28;20023;-64
2022/07/16 08:40:19;;;;;;;7.18;1.63;;;32.90;70.10;;;;;;4975268;28;20073;-64
2022/07/16 08:42:45;;;;;;;4.32;1.40;;;33.60;67.70;;;;;;4975439;28;20018;-64
2022/07/16 08:45:13;;;;;;;2.70;1.30;;;33.80;65.50;;;;;;4975053;28;20034;-64
2022/07/16 08:47:39;;;;;;;2.30;1.40;;;33.60;63.00;;;;;;4975211;28;20545;-64
2022/07/16 08:50:08;;;;;;;5.78;1.20;;;33.30;64.50;;;;;;4973946;28;20126;-64
2022/07/16 08:52:57;;;;;;;1.88;1.15;;;32.90;63.90;;;;;;4975203;28;20027;-64
2022/07/16 08:55:24;;;;;;;8.40;2.35;;;32.60;62.90;;;;;;4975198;28;20470;-64
2022/07/16 08:57:52;;;;;;;3.90;1.40;;;32.40;64.10;;;;;;4973926;28;20027;-64
2022/07/16 09:00:22;;;;;;;2.45;1.50;;;32.80;64.20;;;;;;4974954;28;20124;-64
2022/07/16 09:02:48;;;;;;;2.20;1.30;;;32.90;62.40;;;;;;4974684;28;20045;-64
2022/07/16 09:05:14;;;;;;;3.22;1.38;;;32.80;63.80;;;;;;4973794;28;20027;-64
2022/07/16 09:07:40;;;;;;;4.47;1.60;;;32.60;63.50;;;;;;4973703;28;20027;-64
2022/07/16 09:10:07;;;;;;;2.55;1.52;;;32.50;62.90;;;;;;4973679;28;20474;-64
2022/07/16 09:12:43;;;;;;;3.55;1.33;;;32.00;62.80;;;;;;4975179;28;20031;-64
2022/07/16 09:15:28;;;;;;;2.10;1.88;;;32.00;64.50;;;;;;4973984;28;20030;-64
2022/07/16 09:18:13;;;;;;;1.58;1.45;;;32.50;62.70;;;;;;4974686;28;20035;-64
2022/07/16 09:20:47;;;;;;;3.03;1.27;;;32.80;63.00;;;;;;4975036;28;20113;-64
2022/07/16 09:23:36;;;;;;;4.35;1.65;;;32.60;62.90;;;;;;4975067;28;20078;-64
2022/07/16 09:26:10;;;;;;;2.88;1.40;;;31.90;63.30;;;;;;4974461;28;20038;-64
2022/07/16 09:28:50;;;;;;;5.43;1.30;;;31.60;63.20;;;;;;4975070;28;20385;-64
2022/07/16 09:31:32;;;;;;;3.00;1.55;;;32.20;63.40;;;;;;4973354;28;20117;-64
2022/07/16 09:34:13;;;;;;;2.53;1.42;;;32.40;62.50;;;;;;4973416;28;20104;-64
2022/07/16 09:36:54;;;;;;;2.22;1.30;;;31.90;63.30;;;;;;4974666;28;20105;-64
2022/07/16 09:39:20;;;;;;;3.13;1.25;;;31.30;63.90;;;;;;4974683;28;20118;-64
2022/07/16 09:41:47;;;;;;;5.13;1.65;;;31.90;62.90;;;;;;4973914;28;20102;-64
2022/07/16 09:44:33;;;;;;;4.63;1.27;;;32.40;62.20;;;;;;4973357;28;20069;-65
2022/07/16 09:47:07;;;;;;;2.85;1.35;;;33.40;62.90;;;;;;4974062;28;20046;-64
2022/07/16 09:49:36;;;;;;;3.03;1.48;;;34.00;60.60;;;;;;4974035;28;20058;-64
2022/07/16 09:52:03;;;;;;;2.28;1.33;;;33.70;59.80;;;;;;4973053;28;20053;-64
2022/07/16 09:54:32;;;;;;;4.88;1.85;;;33.30;61.70;;;;;;4974750;28;20034;-65
2022/07/16 09:57:11;;;;;;;2.75;1.80;;;33.80;60.80;;;;;;4974199;28;20026;-65
2022/07/16 09:59:38;;;;;;;1.90;1.30;;;34.90;60.80;;;;;;4974261;28;20027;-65
2022/07/16 10:02:04;;;;;;;6.90;2.00;;;35.50;58.80;;;;;;4973158;28;20023;-64
2022/07/16 10:04:31;;;;;;;3.45;1.27;;;35.60;58.10;;;;;;4973944;28;20099;-65
2022/07/16 10:06:57;;;;;;;2.83;1.60;;;35.40;58.00;;;;;;4973257;28;20033;-65
2022/07/16 10:09:23;;;;;;;1.35;1.25;;;35.20;58.30;;;;;;4974422;28;20033;-65
2022/07/16 10:11:51;;;;;;;2.60;1.40;;;35.00;59.10;;;;;;4974373;28;20077;-65
2022/07/16 10:14:17;;;;;;;4.13;1.75;;;35.30;59.60;;;;;;4976933;28;20038;-64
2022/07/16 10:16:45;;;;;;;5.78;2.05;;;35.60;58.50;;;;;;4976901;28;20123;-64
2022/07/16 10:19:12;;;;;;;2.00;1.23;;;35.00;58.50;;;;;;4976995;28;20058;-64
2022/07/16 10:21:38;;;;;;;2.15;1.50;;;34.70;58.30;;;;;;4977990;28;20098;-65
2022/07/16 10:24:06;;;;;;;2.58;1.40;;;35.00;59.70;;;;;;4977065;28;20023;-65
2022/07/16 10:26:32;;;;;;;2.25;1.63;;;35.30;57.70;;;;;;4977913;28;20026;-64
2022/07/16 10:28:59;;;;;;;2.25;1.58;;;35.70;57.90;;;;;;4976987;28;20521;-64
2022/07/16 10:31:38;;;;;;;3.38;1.30;;;35.90;57.10;;;;;;4976853;28;20074;-65
2022/07/16 10:34:13;;;;;;;2.65;1.52;;;35.50;58.40;;;;;;4976919;28;20031;-64
2022/07/16 10:36:45;;;;;;;1.92;1.60;;;35.20;57.80;;;;;;4977794;28;20026;-64
2022/07/16 10:39:15;;;;;;;3.40;1.50;;;34.40;58.20;;;;;;4976634;28;20030;-64
2022/07/16 10:41:55;;;;;;;2.00;1.40;;;34.00;59.00;;;;;;4977658;28;20154;-64
2022/07/16 10:44:22;;;;;;;5.40;1.77;;;33.50;59.30;;;;;;4977700;28;20105;-64
2022/07/16 10:46:55;;;;;;;4.05;1.63;;;32.70;60.40;;;;;;4977473;28;20270;-64
2022/07/16 10:49:22;;;;;;;2.78;1.35;;;31.70;61.50;;;;;;4977357;28;20188;-64
2022/07/16 10:52:03;;;;;;;2.90;1.58;;;31.20;62.20;;;;;;4976153;28;20019;-64
2022/07/16 10:54:37;;;;;;;3.30;1.63;;;30.80;62.20;;;;;;4976509;28;20146;-64
2022/07/16 10:57:05;;;;;;;4.72;1.90;;;30.30;63.40;;;;;;4977011;28;20034;-64
2022/07/16 10:59:34;;;;;;;3.10;1.25;;;29.80;64.30;;;;;;4977138;28;20027;-64
2022/07/16 11:02:03;;;;;;;2.53;1.60;;;29.60;64.80;;;;;;4976013;28;20109;-64
2022/07/16 11:04:45;;;;;;;2.75;1.10;;;29.40;65.30;;;;;;4976896;28;20030;-64
2022/07/16 11:07:19;;;;;;;2.40;1.40;;;29.50;66.00;;;;;;4975899;28;20031;-64
2022/07/16 11:09:49;;;;;;;2.13;1.38;;;29.30;65.20;;;;;;4976476;28;20034;-64
2022/07/16 11:12:25;;;;;;;5.75;1.75;;;29.30;65.40;;;;;;4976789;28;20027;-64
2022/07/16 11:14:56;;;;;;;6.30;1.95;;;29.00;65.60;;;;;;4976122;28;20456;-64
2022/07/16 11:17:23;;;;;;;2.58;1.50;;;28.90;65.70;;;;;;4977385;28;20035;-64
2022/07/16 11:19:52;;;;;;;2.92;1.70;;;28.70;65.80;;;;;;4975595;28;20078;-64
2022/07/16 11:22:20;;;;;;;3.47;1.80;;;28.70;67.10;;;;;;4977010;28;20019;-64
2022/07/16 11:25:00;;;;;;;2.35;1.85;;;28.50;67.20;;;;;;4974654;28;20034;-64
2022/07/16 11:27:39;;;;;;;3.33;1.65;;;28.40;67.20;;;;;;4977017;28;20029;-64
2022/07/16 11:30:10;;;;;;;3.08;1.50;;;28.40;67.50;;;;;;4976650;28;20027;-64
2022/07/16 11:32:43;;;;;;;4.10;1.67;;;28.30;67.80;;;;;;4977249;28;20030;-64
2022/07/16 11:35:09;;;;;;;5.60;2.03;;;28.40;67.80;;;;;;4976756;28;20109;-64
2022/07/16 11:37:56;;;;;;;3.47;1.70;;;28.40;68.20;;;;;;4975376;28;20508;-64
2022/07/16 11:40:33;;;;;;;2.45;1.90;;;28.50;68.30;;;;;;4976406;28;20062;-64
2022/07/16 11:43:00;;;;;;;1.50;1.40;;;28.60;66.90;;;;;;4975351;28;20027;-64
2022/07/16 11:45:27;;;;;;;4.93;1.80;;;28.50;67.90;;;;;;4976365;28;20081;-64
2022/07/16 11:48:38;;;;;;;3.33;1.52;;;28.30;67.80;;;;;;4975270;28;20019;-64
2022/07/16 11:51:09;;;;;;;2.33;1.60;;;28.30;67.30;;;;;;4974359;28;20054;-63
2022/07/16 11:53:37;;;;;;;2.28;1.23;;;28.30;67.20;;;;;;4973364;28;20030;-64
2022/07/16 11:56:03;;;;;;;6.15;1.50;;;28.20;67.30;;;;;;4976350;28;20023;-64
2022/07/16 11:58:29;;;;;;;3.50;1.80;;;28.30;67.00;;;;;;4976452;28;20031;-64
2022/07/16 12:00:55;;;;;;;2.97;1.63;;;28.30;68.10;;;;;;4976391;28;20106;-64
2022/07/16 12:03:21;;;;;;;2.55;1.63;;;28.10;68.90;;;;;;4974935;28;20390;-64
2022/07/16 12:05:47;;;;;;;3.15;1.63;;;28.10;69.20;;;;;;4976021;28;20026;-64
2022/07/16 12:08:13;;;;;;;2.83;1.60;;;28.00;69.10;;;;;;4976611;28;20105;-64
2022/07/16 12:10:39;;;;;;;3.15;1.75;;;27.90;69.40;;;;;;4975073;28;20110;-64
2022/07/16 12:13:13;;;;;;;2.80;1.58;;;27.70;69.00;;;;;;4974774;28;20023;-64
2022/07/16 12:15:59;;;;;;;3.33;1.67;;;27.60;69.90;;;;;;4976023;28;20027;-64
2022/07/16 12:18:25;;;;;;;3.17;1.80;;;27.40;71.30;;;;;;4975905;28;20069;-64
2022/07/16 12:20:52;;;;;;;5.32;2.10;;;27.20;71.40;;;;;;4975826;28;20031;-64
2022/07/16 12:23:32;;;;;;;6.40;1.73;;;27.10;71.60;;;;;;4975811;28;20081;-64
2022/07/16 12:26:05;;;;;;;3.95;1.88;;;27.10;71.90;;;;;;4974881;28;20117;-64
2022/07/16 12:28:32;;;;;;;2.40;1.58;;;27.00;70.90;;;;;;4974364;28;20098;-64
2022/07/16 12:31:01;;;;;;;3.05;1.33;;;27.00;72.10;;;;;;4975595;28;20106;-64
2022/07/16 12:33:29;;;;;;;5.25;1.60;;;27.10;71.40;;;;;;4974900;28;20030;-64
2022/07/16 12:35:57;;;;;;;4.10;1.77;;;27.10;71.10;;;;;;4973911;28;20030;-64
2022/07/16 12:38:52;;;;;;;4.25;1.48;;;27.10;70.50;;;;;;4975468;28;20033;-64
2022/07/16 12:41:34;;;;;;;4.75;1.55;;;27.20;70.50;;;;;;4975811;28;20077;-64
2022/07/16 12:44:02;;;;;;;1.30;1.00;;;27.10;69.60;;;;;;4975479;28;20059;-64
2022/07/16 12:46:49;;;;;;;1.48;1.10;;;27.00;68.80;;;;;;4975408;28;20019;-64
2022/07/16 12:49:19;;;;;;;1.20;1.10;;;26.90;68.50;;;;;;4973886;28;20049;-63
2022/07/16 12:51:51;;;;;;;2.83;1.15;;;26.80;69.70;;;;;;4975976;28;20038;-64
2022/07/16 12:54:18;;;;;;;4.28;1.15;;;26.80;68.20;;;;;;4975458;28;20027;-63
2022/07/16 12:59:29;;;;;;;1.52;0.95;;;26.70;70.00;;;;;;4975404;28;20034;-63
2022/07/16 13:01:56;;;;;;;1.50;1.00;;;26.70;69.80;;;;;;4975140;28;20078;-64
2022/07/16 13:04:22;;;;;;;3.63;0.90;;;26.70;70.50;;;;;;4973763;28;20031;-64
2022/07/16 13:06:49;;;;;;;1.73;1.25;;;26.70;70.10;;;;;;4973997;28;20061;-64